NCAR-RAP Real-Time Weather Data

Output produced by METARs form (12 August 2020  18:51 UTC)
found at http://weather.rap.ucar.edu/surface/
 
KCAO 121755Z AUTO 10SM CLR 31/09 A3012 RMK AO2 SLP122 T03060089 10311 20178 50010 $
KCAO 121655Z AUTO 10SM CLR 29/13 A3012 RMK AO2 SLP121 T02940128 $
KCAO 121555Z AUTO 01013G22KT 10SM CLR 29/08 A3012 RMK AO2 WSHFT 1457 SLP122 T02890083 $
KCAO 121517Z AUTO 36016KT 10SM CLR 28/04 A3010 RMK AO2 WSHFT 1457 T02780039 $
KCAO 121455Z AUTO 30008KT 10SM CLR 31/03 A3009 RMK AO2 SLP106 T03060033 52009 $
KCAO 121355Z AUTO 26010KT 10SM CLR 24/03 A3007 RMK AO2 SLP098 T02390028 TSNO $
KCAO 121255Z AUTO 25010KT 10SM CLR 19/01 A3007 RMK AO2 SLP096 T01940006 TSNO $
KCAO 121155Z AUTO 24011KT 10SM CLR 18/01 A3005 RMK AO2 SLP099 T01780006 10217 20172 53005 TSNO
KCAO 121055Z AUTO 25009KT 10SM CLR 18/04 A3003 RMK AO2 SLP088 T01830039 TSNO
KCAO 120955Z AUTO 24008KT 10SM CLR 19/07 A3003 RMK AO2 SLP086 T01940072 TSNO
KCAO 120855Z AUTO 21006KT 10SM CLR 17/08 A3004 RMK AO2 SLP097 T01720083 58002
KCAO 120755Z AUTO 22006KT 10SM CLR 19/08 A3004 RMK AO2 SLP091 T01940083
KCAO 120655Z AUTO 23007KT 10SM CLR 19/10 A3005 RMK AO2 SLP097 T01940100 403440133
KCAO 120555Z AUTO 21009KT 10SM CLR 21/11 A3004 RMK AO2 SLP088 T02060106 10333 20200 51011
KCAO 120455Z AUTO 16014KT 10SM CLR 23/12 A3003 RMK AO2 SLP090 T02280117
KCAO 120355Z AUTO 15010KT 10SM CLR 22/12 A3003 RMK AO2 SLP097 T02220117
KCAO 120255Z AUTO 16008KT 10SM CLR 23/11 A3001 RMK AO2 SLP093 T02280111 53003
KCAO 120155Z AUTO 15010KT 10SM CLR 26/12 A2999 RMK AO2 SLP086 T02560117
KCAO 120055Z AUTO 15009KT 10SM CLR 30/12 A2999 RMK AO2 SLP082 T03000117
KCAO 112355Z AUTO 17012KT 10SM CLR 33/06 A3000 RMK AO2 SLP083 T03330061 10344 20294 56016
KCAO 112255Z AUTO 15012KT 10SM CLR 34/06 A3001 RMK AO2 SLP086 T03440061